world map with LCEN marked

LCEN - Airport

This information may not be accurate or current and is not valid for navigation or flight planning. No warranty of fitness for any purpose is made or implied.

flag of Cyprus

Donate via PayPal

Additional information is available on the NEW Great Circle Mapper

Location
City:  Lefkosa, Cyprus
Near (Alt.):Nicosia
Name:Ercan International Airport
ICAO / IATA:LCEN / ECN

Details
Type:Airport (Aerodrome, Airfield)
Latitude:35°08'56"N (35.148889)
Longitude:33°29'59"E (33.499722)
Elevation:402 ft (123 m)
Runways:1
Longest:9039 × 148 ft (2755 × 45 m)

Time
Timezone:UTC+2 (DST+5)
Local Time:

Weather
METAR:LCEN  170350Z 22004KT 190V270 9999 FEW025 SCT100 11/06 Q1023 NOSIG
TAF:LCEN  161040Z 1612/1712 03012KT 9999 SCT025 BECMG 1619/1621 29012KT= TAF LTAC 161040Z 1612/1712 VRB02KT 9999 SCT040 BKN100 TEMPO 1612/1615 28012KT

Related Locations
Nearby:
Farthest:RVV: 11651 mi / 18750 km
Raivavae, Tubuai Islands, Austral Islands, PF

Find:

   beyond  
but within

Other Information
Maps:
Links:
Sources:

  


 


Great Circle Mapper   Great Circle Mapper
Great Circle Mapper FAQ   Great Circle Mapper FAQ
  Karl's Home Page
KLSē   KLSē Home
   GC on Facebook
Airlines of the World   Airlines of the World
Donate via PayPal


Copyright © 2004-2018, Karl L. Swartz. All rights reserved.
All trademarks mentioned herein belong to their respective owners.

Please see credits for attribution and copyright information.

Karl Swartz <karl@kls2.com>
  Powered by FreeBSD
Valid HTML 4.01!
Labeled with ICRA
hCard Microformat
Geo Microformat